Hazelwood, Ohio
Current Conditions -  °F | °C
As of 11:04 AM on Monday 24 Nov 2014 (Local Time) from KLUK Reporting Station
Overcast Overcast  
Wind Chill: 58°   Ceiling: 2600
Heat Index: 58°   Visibility: 10mi
Dew Point: 55°   Wind: 26mph
Humidity: 90%   Direction: 240°WSW
Pressure: 29.47"   Gusts: 36mph
Location:  39.2437°N, 84.3529°W
Report Text: KLUK 241604Z 24023G31KT 10SM BKN026 OVC034 14/13 A2947 RMK AO2 PK WND 26031/1556 T01440128
Loading
Personal Weather Stations






























Interactive Weather Map New forecast layout! Learn more

10-Day Weather Forecast

Advertisements
Track Severe Weather on mobile